createdAt,value
2022-12-25T18:54:57.204Z,72.34
2022-12-25T18:56:19.330Z,72.92
2022-12-25T18:57:41.172Z,73.89
2022-12-25T18:59:02.780Z,74.94
2022-12-25T19:00:25.125Z,73.95
2022-12-25T19:01:47.111Z,75.03
2022-12-25T19:03:09.513Z,75.02
2022-12-25T19:04:32.816Z,75.44
2022-12-25T19:05:55.248Z,75.22
2022-12-25T19:07:17.210Z,75.77
2022-12-25T19:08:39.103Z,77.20
2022-12-25T19:10:01.103Z,77.26
2022-12-25T19:11:23.733Z,76.85
2022-12-25T19:12:45.715Z,75.76
2022-12-25T19:14:09.396Z,75.94
2022-12-25T19:15:31.011Z,73.27
2022-12-25T19:16:54.277Z,73.92
2022-12-25T19:18:16.334Z,72.42
2022-12-25T19:19:39.336Z,72.60
2022-12-25T19:21:05.939Z,73.12
2022-12-25T19:22:28.159Z,73.55
2022-12-25T19:23:49.892Z,75.78
2022-12-25T19:25:11.753Z,73.16
2022-12-25T19:26:36.258Z,72.74
2022-12-25T19:27:58.038Z,72.77
2022-12-25T19:29:19.980Z,72.89
2022-12-25T19:30:41.735Z,73.02
2022-12-25T19:32:03.885Z,72.97
2022-12-25T19:33:25.875Z,73.12
2022-12-25T19:34:47.731Z,73.64
2022-12-25T19:36:13.095Z,74.85
2022-12-25T19:37:35.096Z,74.64
2022-12-25T19:38:57.022Z,73.49
2022-12-25T19:40:19.208Z,75.18
2022-12-25T19:41:41.193Z,75.43
2022-12-25T19:43:03.126Z,74.54
2022-12-25T19:44:25.027Z,75.21
2022-12-25T19:45:46.962Z,75.13
2022-12-25T19:47:10.919Z,76.32
2022-12-25T19:48:34.075Z,76.99
2022-12-25T19:50:00.858Z,76.40
2022-12-25T19:51:27.064Z,75.99
2022-12-25T19:52:48.986Z,76.52
2022-12-25T19:54:17.240Z,76.16
2022-12-25T19:55:39.076Z,75.76
2022-12-25T19:57:01.417Z,75.98
2022-12-25T19:58:24.161Z,76.00
2022-12-25T19:59:48.765Z,76.11
2022-12-25T20:01:16.746Z,73.41
2022-12-25T20:02:38.795Z,73.94
2022-12-25T20:04:01.105Z,75.62
2022-12-25T20:05:23.303Z,75.77
2022-12-25T20:06:45.871Z,75.97
2022-12-25T20:08:07.924Z,75.01
2022-12-25T20:09:31.091Z,76.74
2022-12-25T20:10:53.160Z,77.79
2022-12-25T20:12:16.368Z,76.01
2022-12-25T20:13:38.777Z,76.32
2022-12-25T20:15:01.083Z,75.67
2022-12-25T20:16:23.782Z,74.50
2022-12-25T20:17:47.690Z,75.88
2022-12-25T20:19:14.464Z,76.49
2022-12-25T20:20:36.636Z,75.48
2022-12-25T20:21:58.845Z,76.65
2022-12-25T20:23:20.896Z,77.59
2022-12-25T20:24:42.748Z,77.62
2022-12-25T20:26:05.511Z,77.89
2022-12-25T20:27:27.551Z,77.69
2022-12-25T20:28:49.496Z,77.95
2022-12-25T20:30:11.631Z,78.34
2022-12-25T20:31:35.705Z,77.37
2022-12-25T20:32:57.952Z,76.93
2022-12-25T20:34:20.044Z,76.55
2022-12-25T20:35:46.751Z,78.19
2022-12-25T20:37:08.750Z,77.88
2022-12-25T20:38:31.305Z,78.46
2022-12-25T20:39:53.015Z,78.42
2022-12-25T20:41:29.223Z,78.30
2022-12-25T20:42:51.486Z,77.84
2022-12-25T20:44:13.484Z,78.28
2022-12-25T20:45:39.981Z,77.67
2022-12-25T20:47:03.557Z,77.53
2022-12-25T20:48:25.564Z,77.36
2022-12-25T20:49:47.881Z,77.32
2022-12-25T20:51:11.006Z,78.11
2022-12-25T20:52:32.677Z,77.33
2022-12-25T20:53:55.555Z,78.26
2022-12-25T20:55:17.326Z,78.74
2022-12-25T20:56:40.358Z,78.84
2022-12-25T20:58:01.996Z,79.46
2022-12-25T20:59:24.985Z,79.35
2022-12-25T21:00:46.882Z,78.67
2022-12-25T21:02:11.593Z,78.44
2022-12-25T21:03:54.500Z,79.74
2022-12-25T21:05:16.601Z,79.34
2022-12-25T21:06:38.313Z,78.75
2022-12-25T21:08:00.170Z,79.11
2022-12-25T21:09:22.110Z,79.52
2022-12-25T21:10:46.245Z,78.67
2022-12-25T21:12:08.354Z,79.38
2022-12-25T21:13:32.808Z,79.75
2022-12-25T21:14:54.477Z,78.13
2022-12-25T21:16:22.274Z,78.19
2022-12-25T21:17:44.407Z,79.20
2022-12-25T21:19:06.477Z,81.04
2022-12-25T21:20:28.346Z,80.82
2022-12-25T21:21:51.117Z,81.30
2022-12-25T21:23:13.338Z,80.25
2022-12-25T21:24:36.348Z,80.19
2022-12-25T21:25:58.354Z,78.84
2022-12-25T21:27:20.200Z,79.73
2022-12-25T21:28:41.897Z,79.53
2022-12-25T21:30:15.313Z,80.54
2022-12-25T21:31:56.222Z,80.95
2022-12-25T21:33:36.386Z,80.74
2022-12-25T21:34:58.076Z,80.67
2022-12-25T21:36:34.402Z,81.20
2022-12-25T21:37:56.014Z,81.26
2022-12-25T21:39:17.888Z,80.84
2022-12-25T21:40:39.897Z,79.78
2022-12-25T21:42:04.521Z,81.25
2022-12-25T21:43:26.308Z,81.92
2022-12-25T21:44:49.009Z,82.15
2022-12-25T21:46:14.956Z,81.64
2022-12-25T21:48:01.423Z,81.97
2022-12-25T21:49:38.414Z,81.80
2022-12-25T21:51:30.294Z,82.13
2022-12-25T21:52:52.912Z,81.27
2022-12-25T21:54:16.062Z,82.72
2022-12-25T21:55:37.980Z,82.94
2022-12-25T21:57:00.005Z,82.94
2022-12-25T21:58:21.953Z,82.47
2022-12-25T21:59:43.987Z,82.39
2022-12-25T22:01:06.282Z,82.16
2022-12-25T22:02:28.535Z,83.21
2022-12-25T22:03:50.486Z,82.93
2022-12-25T22:05:32.308Z,82.40
2022-12-25T22:07:12.851Z,82.48
2022-12-25T22:08:34.623Z,82.57
2022-12-25T22:09:56.157Z,83.10
2022-12-25T22:11:36.515Z,83.60
2022-12-25T22:13:17.116Z,83.76
2022-12-25T22:14:54.973Z,83.33
2022-12-25T22:16:36.118Z,81.80
2022-12-25T22:18:16.427Z,82.14
2022-12-25T22:19:44.984Z,81.78
2022-12-25T22:21:07.654Z,82.22
2022-12-25T22:22:30.955Z,82.91
2022-12-25T22:23:53.102Z,82.98
2022-12-25T22:25:15.302Z,83.08
2022-12-25T22:26:37.250Z,81.97
2022-12-25T22:27:59.519Z,82.44
2022-12-25T22:29:22.360Z,82.79
2022-12-25T22:30:44.467Z,82.47
2022-12-25T22:32:07.128Z,82.87
2022-12-25T22:33:30.641Z,81.81
2022-12-25T22:34:52.664Z,81.91
2022-12-25T22:36:14.253Z,81.66
2022-12-25T22:37:36.424Z,81.64
2022-12-25T22:38:58.269Z,81.50
2022-12-25T22:40:21.057Z,81.04
2022-12-25T22:41:42.529Z,81.96
2022-12-25T22:43:04.370Z,81.49
2022-12-25T22:44:28.518Z,82.62
2022-12-25T22:45:50.544Z,82.90
2022-12-25T22:47:12.192Z,83.17
2022-12-25T22:48:34.231Z,83.27
2022-12-25T22:49:55.990Z,83.64
2022-12-25T22:51:18.056Z,83.36
2022-12-25T22:52:40.042Z,83.45
2022-12-25T22:54:03.804Z,81.81
2022-12-25T22:55:25.724Z,82.63
2022-12-25T22:56:52.315Z,82.91
2022-12-25T22:58:14.620Z,82.65
2022-12-25T22:59:36.511Z,82.70
2022-12-25T23:00:57.933Z,82.97
2022-12-25T23:02:20.176Z,82.45
2022-12-25T23:03:43.140Z,83.53
2022-12-25T23:05:05.217Z,81.99
2022-12-25T23:06:27.121Z,83.15
2022-12-25T23:07:48.862Z,82.83
2022-12-25T23:09:18.899Z,83.70
2022-12-25T23:10:43.965Z,81.13
2022-12-25T23:12:06.412Z,80.78
2022-12-25T23:13:46.755Z,82.59
2022-12-25T23:15:09.234Z,82.29
2022-12-25T23:16:31.230Z,83.47
2022-12-25T23:18:11.144Z,82.96
2022-12-25T23:19:51.562Z,82.26
2022-12-25T23:21:33.756Z,81.18
2022-12-25T23:23:14.181Z,81.34
2022-12-25T23:24:54.269Z,82.08
2022-12-25T23:26:17.745Z,81.73
2022-12-25T23:27:40.070Z,82.55
2022-12-25T23:29:20.648Z,82.18
2022-12-25T23:30:42.206Z,81.38
2022-12-25T23:32:17.611Z,81.70
2022-12-25T23:33:39.236Z,83.42
2022-12-25T23:35:00.943Z,83.17
2022-12-25T23:36:23.749Z,83.62
2022-12-25T23:37:46.695Z,84.40
2022-12-25T23:39:10.344Z,83.49
2022-12-25T23:40:33.003Z,83.94
2022-12-25T23:41:55.131Z,84.44
2022-12-25T23:43:17.158Z,83.97
2022-12-25T23:44:38.971Z,84.75
2022-12-25T23:46:00.863Z,82.59
2022-12-25T23:47:22.847Z,84.36
2022-12-25T23:48:44.740Z,85.19
2022-12-25T23:50:06.793Z,84.88
2022-12-25T23:51:28.678Z,84.35
2022-12-25T23:52:50.547Z,84.07
2022-12-25T23:54:15.849Z,84.15
2022-12-25T23:55:37.371Z,84.45
2022-12-25T23:56:59.985Z,84.36
2022-12-25T23:58:21.929Z,83.86
2022-12-25T23:59:43.751Z,84.17
